Lime Springs, Iowa
Current Conditions -  °F | °C
As of 10:16 AM on Wednesday 22 Oct 2014 (Local Time) from KFKA Reporting Station
Clear Clear  
Wind Chill: 36°   Ceiling: Unl
Heat Index: 44°   Visibility: 7mi
Dew Point: 35°   Wind: 17mph
Humidity: 72%   Direction: 170°S
Pressure: 30.27"   Gusts: NA
Location:  43.45°N, 92.28°W
Report Text: KFKA 221516Z AUTO 17015KT 7SM CLR 07/02 A3027 RMK AO2 T00650017
Loading
Personal Weather Stations






























Interactive Weather Map
Tropical Storm Tracking
New forecast layout! Learn more

10-Day Weather Forecast

Advertisements
Track Severe Weather on mobile